sensor_id;sensor_type;location;lat;lon;timestamp;pressure;altitude;pressure_sealevel;temperature;humidity
64053;BME280;50299;49.524;8.536;2022-09-30T00:01:22;99665.69;;;7.10;78.71
64053;BME280;50299;49.524;8.536;2022-09-30T00:03:55;99674.69;;;7.46;86.52
64053;BME280;50299;49.524;8.536;2022-09-30T00:06:29;99668.00;;;7.81;88.79
64053;BME280;50299;49.524;8.536;2022-09-30T00:09:02;99671.44;;;7.70;81.68
64053;BME280;50299;49.524;8.536;2022-09-30T00:11:31;99677.31;;;7.98;91.09
64053;BME280;50299;49.524;8.536;2022-09-30T00:14:06;99669.03;;;8.57;97.80
64053;BME280;50299;49.524;8.536;2022-09-30T00:16:35;99676.19;;;8.79;89.82
64053;BME280;50299;49.524;8.536;2022-09-30T00:19:02;99668.00;;;8.70;83.00
64053;BME280;50299;49.524;8.536;2022-09-30T00:21:30;99669.72;;;8.54;78.23
64053;BME280;50299;49.524;8.536;2022-09-30T00:23:57;99666.31;;;7.89;70.25
64053;BME280;50299;49.524;8.536;2022-09-30T00:26:24;99661.97;;;7.06;73.43
64053;BME280;50299;49.524;8.536;2022-09-30T00:28:55;99667.47;;;6.89;81.02
64053;BME280;50299;49.524;8.536;2022-09-30T00:31:25;99670.38;;;7.01;86.12
64053;BME280;50299;49.524;8.536;2022-09-30T00:33:52;99668.09;;;7.21;80.08
64053;BME280;50299;49.524;8.536;2022-09-30T00:36:46;99681.47;;;7.39;82.25
64053;BME280;50299;49.524;8.536;2022-09-30T00:39:24;99678.03;;;7.77;91.25
64053;BME280;50299;49.524;8.536;2022-09-30T00:41:55;99670.38;;;7.92;86.31
64053;BME280;50299;49.524;8.536;2022-09-30T00:44:50;99685.78;;;7.84;83.62
64053;BME280;50299;49.524;8.536;2022-09-30T00:47:35;99678.78;;;7.95;84.51
64053;BME280;50299;49.524;8.536;2022-09-30T00:53:15;99672.03;;;7.75;75.02
64053;BME280;50299;49.524;8.536;2022-09-30T00:55:59;99671.31;;;7.49;80.64
64053;BME280;50299;49.524;8.536;2022-09-30T00:58:32;99670.34;;;7.45;82.11
64053;BME280;50299;49.524;8.536;2022-09-30T01:01:07;99665.69;;;6.50;73.51
64053;BME280;50299;49.524;8.536;2022-09-30T01:03:37;99658.19;;;5.84;76.59
64053;BME280;50299;49.524;8.536;2022-09-30T01:06:12;99663.09;;;5.65;77.76
64053;BME280;50299;49.524;8.536;2022-09-30T01:08:45;99668.19;;;5.80;81.44
64053;BME280;50299;49.524;8.536;2022-09-30T01:11:11;99659.03;;;5.94;80.93
64053;BME280;50299;49.524;8.536;2022-09-30T01:13:51;99670.00;;;5.94;78.46
64053;BME280;50299;49.524;8.536;2022-09-30T01:19:33;99676.03;;;5.73;78.34
64053;BME280;50299;49.524;8.536;2022-09-30T01:22:31;99681.53;;;6.13;87.55
64053;BME280;50299;49.524;8.536;2022-09-30T01:28:01;99688.09;;;7.56;97.29
64053;BME280;50299;49.524;8.536;2022-09-30T01:37:14;99689.13;;;6.99;80.40
64053;BME280;50299;49.524;8.536;2022-09-30T01:42:53;99688.00;;;6.92;78.03
64053;BME280;50299;49.524;8.536;2022-09-30T01:45:32;99685.56;;;6.73;80.97
64053;BME280;50299;49.524;8.536;2022-09-30T01:48:22;99693.81;;;6.81;80.74
64053;BME280;50299;49.524;8.536;2022-09-30T01:50:55;99699.00;;;6.83;80.24
64053;BME280;50299;49.524;8.536;2022-09-30T01:53:50;99700.44;;;7.06;90.18
64053;BME280;50299;49.524;8.536;2022-09-30T01:56:26;99714.47;;;7.48;86.59
64053;BME280;50299;49.524;8.536;2022-09-30T01:59:04;99712.84;;;7.47;80.80
64053;BME280;50299;49.524;8.536;2022-09-30T02:01:51;99714.34;;;7.53;79.32
64053;BME280;50299;49.524;8.536;2022-09-30T02:04:44;99722.91;;;7.52;80.25
64053;BME280;50299;49.524;8.536;2022-09-30T02:07:59;99712.53;;;8.13;92.35
64053;BME280;50299;49.524;8.536;2022-09-30T02:10:27;99715.50;;;8.37;87.57
64053;BME280;50299;49.524;8.536;2022-09-30T02:13:05;99718.34;;;8.50;89.74
64053;BME280;50299;49.524;8.536;2022-09-30T02:15:40;99727.56;;;8.54;84.06
64053;BME280;50299;49.524;8.536;2022-09-30T02:18:20;99723.03;;;8.49;81.08
64053;BME280;50299;49.524;8.536;2022-09-30T02:20:51;99730.22;;;8.71;89.31
64053;BME280;50299;49.524;8.536;2022-09-30T02:23:29;99723.47;;;8.60;79.18
64053;BME280;50299;49.524;8.536;2022-09-30T02:26:12;99730.03;;;8.47;79.63
64053;BME280;50299;49.524;8.536;2022-09-30T02:28:45;99733.50;;;8.35;78.23
64053;BME280;50299;49.524;8.536;2022-09-30T02:31:15;99734.81;;;8.29;87.15
64053;BME280;50299;49.524;8.536;2022-09-30T02:33:46;99729.84;;;8.81;92.87
64053;BME280;50299;49.524;8.536;2022-09-30T02:39:32;99735.34;;;8.52;80.33
64053;BME280;50299;49.524;8.536;2022-09-30T02:42:16;99730.72;;;8.73;87.78
64053;BME280;50299;49.524;8.536;2022-09-30T02:44:50;99737.63;;;8.79;78.82
64053;BME280;50299;49.524;8.536;2022-09-30T02:50:32;99731.84;;;8.04;79.22
64053;BME280;50299;49.524;8.536;2022-09-30T02:53:14;99732.25;;;7.85;80.64
64053;BME280;50299;49.524;8.536;2022-09-30T02:56:02;99728.72;;;7.59;81.56
64053;BME280;50299;49.524;8.536;2022-09-30T02:58:31;99736.34;;;7.53;83.28
64053;BME280;50299;49.524;8.536;2022-09-30T03:00:59;99739.53;;;7.47;80.22
64053;BME280;50299;49.524;8.536;2022-09-30T03:03:50;99739.53;;;7.64;90.79
64053;BME280;50299;49.524;8.536;2022-09-30T03:06:19;99743.03;;;7.99;88.41
64053;BME280;50299;49.524;8.536;2022-09-30T03:08:46;99747.69;;;8.07;85.01
64053;BME280;50299;49.524;8.536;2022-09-30T03:11:18;99749.44;;;8.21;87.88
64053;BME280;50299;49.524;8.536;2022-09-30T03:17:05;99754.31;;;8.53;91.45
64053;BME280;50299;49.524;8.536;2022-09-30T03:25:44;99758.28;;;6.84;72.67
64053;BME280;50299;49.524;8.536;2022-09-30T03:29:00;99761.22;;;6.87;78.56
64053;BME280;50299;49.524;8.536;2022-09-30T03:34:18;99753.88;;;6.17;81.96
64053;BME280;50299;49.524;8.536;2022-09-30T03:36:57;99745.31;;;5.87;76.08
64053;BME280;50299;49.524;8.536;2022-09-30T03:39:43;99746.94;;;5.88;80.63
64053;BME280;50299;49.524;8.536;2022-09-30T03:42:26;99743.03;;;5.13;77.01
64053;BME280;50299;49.524;8.536;2022-09-30T03:45:26;99745.91;;;5.08;82.51
64053;BME280;50299;49.524;8.536;2022-09-30T03:48:10;99746.34;;;5.24;80.66
64053;BME280;50299;49.524;8.536;2022-09-30T03:50:53;99751.66;;;5.43;81.81
64053;BME280;50299;49.524;8.536;2022-09-30T03:53:41;99746.97;;;5.66;83.95
64053;BME280;50299;49.524;8.536;2022-09-30T03:56:14;99749.28;;;5.73;79.95
64053;BME280;50299;49.524;8.536;2022-09-30T03:58:47;99754.66;;;5.55;78.72
64053;BME280;50299;49.524;8.536;2022-09-30T04:01:27;99763.91;;;6.22;93.38
64053;BME280;50299;49.524;8.536;2022-09-30T04:04:00;99759.47;;;6.43;85.54
64053;BME280;50299;49.524;8.536;2022-09-30T04:06:40;99769.03;;;6.14;82.51
64053;BME280;50299;49.524;8.536;2022-09-30T04:09:07;99765.41;;;5.97;80.68
64053;BME280;50299;49.524;8.536;2022-09-30T04:11:48;99761.47;;;5.66;77.83
64053;BME280;50299;49.524;8.536;2022-09-30T04:14:29;99763.78;;;5.51;79.47
64053;BME280;50299;49.524;8.536;2022-09-30T04:17:04;99770.94;;;5.38;79.46
64053;BME280;50299;49.524;8.536;2022-09-30T04:19:30;99772.88;;;5.15;79.18
64053;BME280;50299;49.524;8.536;2022-09-30T04:21:57;99789.53;;;5.86;94.97
64053;BME280;50299;49.524;8.536;2022-09-30T04:24:24;99789.72;;;5.89;88.86
64053;BME280;50299;49.524;8.536;2022-09-30T04:26:50;99788.03;;;6.11;86.72
64053;BME280;50299;49.524;8.536;2022-09-30T04:29:16;99794.00;;;5.82;81.65
64053;BME280;50299;49.524;8.536;2022-09-30T04:31:43;99791.53;;;5.49;76.97
64053;BME280;50299;49.524;8.536;2022-09-30T04:34:16;99792.53;;;5.17;74.40
64053;BME280;50299;49.524;8.536;2022-09-30T04:36:42;99798.69;;;4.73;74.66
64053;BME280;50299;49.524;8.536;2022-09-30T04:39:14;99800.50;;;4.63;80.03
64053;BME280;50299;49.524;8.536;2022-09-30T04:41:47;99802.22;;;4.59;83.24
64053;BME280;50299;49.524;8.536;2022-09-30T04:44:14;99805.41;;;4.53;79.23
64053;BME280;50299;49.524;8.536;2022-09-30T04:46:46;99817.34;;;4.43;79.13
64053;BME280;50299;49.524;8.536;2022-09-30T04:49:19;99820.38;;;4.41;80.60
64053;BME280;50299;49.524;8.536;2022-09-30T04:52:00;99813.16;;;4.18;79.90
64053;BME280;50299;49.524;8.536;2022-09-30T04:54:32;99810.78;;;3.98;79.46
64053;BME280;50299;49.524;8.536;2022-09-30T04:57:05;99814.03;;;3.67;77.95
64053;BME280;50299;49.524;8.536;2022-09-30T04:59:32;99818.88;;;3.89;82.16
64053;BME280;50299;49.524;8.536;2022-09-30T05:02:05;99824.63;;;4.20;84.43
64053;BME280;50299;49.524;8.536;2022-09-30T05:04:32;99829.19;;;4.38;83.62
64053;BME280;50299;49.524;8.536;2022-09-30T05:07:05;99829.13;;;4.57;86.04
64053;BME280;50299;49.524;8.536;2022-09-30T05:09:34;99833.38;;;4.91;86.85
64053;BME280;50299;49.524;8.536;2022-09-30T05:12:01;99842.31;;;4.69;81.04
64053;BME280;50299;49.524;8.536;2022-09-30T05:14:34;99853.06;;;5.07;85.67
64053;BME280;50299;49.524;8.536;2022-09-30T05:17:01;99850.13;;;5.03;82.18
64053;BME280;50299;49.524;8.536;2022-09-30T05:19:28;99852.16;;;4.84;77.53
64053;BME280;50299;49.524;8.536;2022-09-30T05:21:55;99850.69;;;4.59;75.57
64053;BME280;50299;49.524;8.536;2022-09-30T05:24:21;99849.78;;;4.36;75.86
64053;BME280;50299;49.524;8.536;2022-09-30T05:26:48;99855.13;;;4.27;77.74
64053;BME280;50299;49.524;8.536;2022-09-30T05:29:20;99860.56;;;4.13;77.79
64053;BME280;50299;49.524;8.536;2022-09-30T05:31:47;99868.88;;;4.08;76.90
64053;BME280;50299;49.524;8.536;2022-09-30T05:34:13;99872.75;;;4.21;85.43
64053;BME280;50299;49.524;8.536;2022-09-30T05:36:51;99879.56;;;4.24;85.91
64053;BME280;50299;49.524;8.536;2022-09-30T05:39:18;99877.09;;;4.82;87.72
64053;BME280;50299;49.524;8.536;2022-09-30T05:41:44;99878.50;;;4.66;78.60
64053;BME280;50299;49.524;8.536;2022-09-30T05:44:10;99878.59;;;4.61;77.05
64053;BME280;50299;49.524;8.536;2022-09-30T05:46:37;99893.91;;;4.62;77.08
64053;BME280;50299;49.524;8.536;2022-09-30T05:49:03;99884.72;;;4.85;81.25
64053;BME280;50299;49.524;8.536;2022-09-30T05:51:30;99887.22;;;4.82;77.24
64053;BME280;50299;49.524;8.536;2022-09-30T05:53:58;99896.97;;;4.60;76.95
64053;BME280;50299;49.524;8.536;2022-09-30T05:56:25;99911.81;;;4.87;84.78
64053;BME280;50299;49.524;8.536;2022-09-30T05:58:51;99917.69;;;5.08;81.21
64053;BME280;50299;49.524;8.536;2022-09-30T06:01:21;99927.03;;;5.07;78.96
64053;BME280;50299;49.524;8.536;2022-09-30T06:03:47;99931.34;;;4.80;78.04
64053;BME280;50299;49.524;8.536;2022-09-30T06:06:20;99936.25;;;4.37;74.85
64053;BME280;50299;49.524;8.536;2022-09-30T06:08:46;99935.09;;;4.24;80.00
64053;BME280;50299;49.524;8.536;2022-09-30T06:11:15;99942.28;;;4.01;77.33
64053;BME280;50299;49.524;8.536;2022-09-30T06:13:42;99943.91;;;3.64;78.64
64053;BME280;50299;49.524;8.536;2022-09-30T06:16:10;99941.13;;;3.88;84.47
64053;BME280;50299;49.524;8.536;2022-09-30T06:18:38;99944.69;;;4.68;87.66
64053;BME280;50299;49.524;8.536;2022-09-30T06:21:08;99941.31;;;5.31;96.50
64053;BME280;50299;49.524;8.536;2022-09-30T06:23:36;99942.22;;;5.90;95.65
64053;BME280;50299;49.524;8.536;2022-09-30T06:26:04;99946.00;;;6.39;89.19
64053;BME280;50299;49.524;8.536;2022-09-30T06:28:31;99939.03;;;6.33;87.05
64053;BME280;50299;49.524;8.536;2022-09-30T06:31:01;99942.16;;;6.49;84.26
64053;BME280;50299;49.524;8.536;2022-09-30T06:33:35;99944.66;;;6.59;87.25
64053;BME280;50299;49.524;8.536;2022-09-30T06:36:02;99953.66;;;6.51;77.29
64053;BME280;50299;49.524;8.536;2022-09-30T06:38:31;99960.66;;;7.28;99.70
64053;BME280;50299;49.524;8.536;2022-09-30T06:41:06;99964.31;;;7.72;89.15
64053;BME280;50299;49.524;8.536;2022-09-30T06:43:33;99970.50;;;7.95;95.61
64053;BME280;50299;49.524;8.536;2022-09-30T06:46:16;99973.53;;;8.63;100.00
64053;BME280;50299;49.524;8.536;2022-09-30T06:48:57;99978.75;;;8.21;84.59
64053;BME280;50299;49.524;8.536;2022-09-30T06:51:38;99992.69;;;8.59;98.11
64053;BME280;50299;49.524;8.536;2022-09-30T06:54:11;99991.69;;;8.47;81.98
64053;BME280;50299;49.524;8.536;2022-09-30T06:56:42;99990.28;;;8.23;78.41
64053;BME280;50299;49.524;8.536;2022-09-30T06:59:10;99987.34;;;6.97;66.79
64053;BME280;50299;49.524;8.536;2022-09-30T07:01:46;99985.88;;;6.01;77.10
64053;BME280;50299;49.524;8.536;2022-09-30T07:04:12;99993.16;;;6.64;91.21
64053;BME280;50299;49.524;8.536;2022-09-30T07:06:45;99997.06;;;7.03;89.16
64053;BME280;50299;49.524;8.536;2022-09-30T07:09:11;99997.81;;;7.17;90.42
64053;BME280;50299;49.524;8.536;2022-09-30T07:11:38;99995.06;;;7.57;87.11
64053;BME280;50299;49.524;8.536;2022-09-30T07:14:06;99995.91;;;8.18;98.15
64053;BME280;50299;49.524;8.536;2022-09-30T07:16:33;99997.88;;;8.44;93.43
64053;BME280;50299;49.524;8.536;2022-09-30T07:19:00;99995.00;;;9.04;94.40
64053;BME280;50299;49.524;8.536;2022-09-30T07:21:27;99995.19;;;9.37;96.16
64053;BME280;50299;49.524;8.536;2022-09-30T07:23:55;99997.44;;;9.44;86.24
64053;BME280;50299;49.524;8.536;2022-09-30T07:26:24;99998.97;;;8.86;81.59
64053;BME280;50299;49.524;8.536;2022-09-30T07:28:51;100009.16;;;9.32;90.78
64053;BME280;50299;49.524;8.536;2022-09-30T07:31:23;100006.84;;;9.43;84.14
64053;BME280;50299;49.524;8.536;2022-09-30T07:34:07;100017.94;;;9.34;87.17
64053;BME280;50299;49.524;8.536;2022-09-30T07:36:35;100022.28;;;9.74;94.51
64053;BME280;50299;49.524;8.536;2022-09-30T07:39:05;100015.06;;;10.11;92.64
64053;BME280;50299;49.524;8.536;2022-09-30T07:41:34;100019.31;;;9.11;63.78
64053;BME280;50299;49.524;8.536;2022-09-30T07:44:09;100021.34;;;7.01;69.41
64053;BME280;50299;49.524;8.536;2022-09-30T07:46:37;100023.47;;;6.81;78.61
64053;BME280;50299;49.524;8.536;2022-09-30T07:49:19;100018.66;;;7.49;86.99
64053;BME280;50299;49.524;8.536;2022-09-30T07:51:58;100013.91;;;8.07;79.91
64053;BME280;50299;49.524;8.536;2022-09-30T07:54:32;100029.09;;;7.38;70.88
64053;BME280;50299;49.524;8.536;2022-09-30T07:57:10;100033.16;;;7.89;84.03
64053;BME280;50299;49.524;8.536;2022-09-30T07:59:43;100034.28;;;7.97;73.53
64053;BME280;50299;49.524;8.536;2022-09-30T08:02:15;100037.22;;;8.18;83.73
64053;BME280;50299;49.524;8.536;2022-09-30T08:04:42;100036.44;;;8.44;85.71
64053;BME280;50299;49.524;8.536;2022-09-30T08:07:11;100046.81;;;8.55;90.96
64053;BME280;50299;49.524;8.536;2022-09-30T08:09:41;100050.72;;;9.27;91.59
64053;BME280;50299;49.524;8.536;2022-09-30T08:12:08;100043.47;;;9.14;82.87
64053;BME280;50299;49.524;8.536;2022-09-30T08:14:34;100046.63;;;8.17;65.92
64053;BME280;50299;49.524;8.536;2022-09-30T08:17:01;100051.34;;;7.20;84.67
64053;BME280;50299;49.524;8.536;2022-09-30T08:19:28;100059.59;;;8.17;87.87
64053;BME280;50299;49.524;8.536;2022-09-30T08:21:56;100059.75;;;8.46;86.39
64053;BME280;50299;49.524;8.536;2022-09-30T08:24:24;100057.81;;;8.38;74.18
64053;BME280;50299;49.524;8.536;2022-09-30T08:26:51;100061.88;;;8.41;77.46
64053;BME280;50299;49.524;8.536;2022-09-30T08:29:18;100070.44;;;9.00;84.45
64053;BME280;50299;49.524;8.536;2022-09-30T08:32:04;100067.91;;;9.33;86.63
64053;BME280;50299;49.524;8.536;2022-09-30T08:34:31;100067.63;;;9.64;84.57
64053;BME280;50299;49.524;8.536;2022-09-30T08:37:00;100078.09;;;9.88;82.91
64053;BME280;50299;49.524;8.536;2022-09-30T08:39:32;100078.72;;;10.15;79.14
64053;BME280;50299;49.524;8.536;2022-09-30T08:48:10;100083.81;;;10.54;92.78
64053;BME280;50299;49.524;8.536;2022-09-30T08:50:52;100076.91;;;10.81;77.00
64053;BME280;50299;49.524;8.536;2022-09-30T08:53:29;100083.31;;;10.52;78.86
64053;BME280;50299;49.524;8.536;2022-09-30T08:55:57;100082.31;;;10.57;81.11
64053;BME280;50299;49.524;8.536;2022-09-30T08:58:31;100074.03;;;10.57;82.78
64053;BME280;50299;49.524;8.536;2022-09-30T09:01:04;100064.47;;;10.75;78.24
64053;BME280;50299;49.524;8.536;2022-09-30T09:03:38;100062.88;;;11.20;84.37
64053;BME280;50299;49.524;8.536;2022-09-30T09:11:11;100072.03;;;11.69;80.67
64053;BME280;50299;49.524;8.536;2022-09-30T09:14:00;100074.94;;;11.03;76.25
64053;BME280;50299;49.524;8.536;2022-09-30T09:16:41;100081.75;;;10.84;78.74
64053;BME280;50299;49.524;8.536;2022-09-30T09:19:14;100091.34;;;11.20;80.62
64053;BME280;50299;49.524;8.536;2022-09-30T09:21:54;100085.25;;;11.27;78.19
64053;BME280;50299;49.524;8.536;2022-09-30T09:24:33;100088.47;;;11.29;74.15
64053;BME280;50299;49.524;8.536;2022-09-30T09:27:16;100073.75;;;11.62;81.08
64053;BME280;50299;49.524;8.536;2022-09-30T09:30:09;100070.28;;;11.52;78.92
64053;BME280;50299;49.524;8.536;2022-09-30T09:32:49;100077.53;;;11.32;75.43
64053;BME280;50299;49.524;8.536;2022-09-30T09:35:28;100073.69;;;11.13;66.40
64053;BME280;50299;49.524;8.536;2022-09-30T09:38:16;100072.88;;;10.79;62.46
64053;BME280;50299;49.524;8.536;2022-09-30T09:49:13;100067.63;;;11.44;66.96
64053;BME280;50299;49.524;8.536;2022-09-30T09:52:14;100078.53;;;11.16;74.39
64053;BME280;50299;49.524;8.536;2022-09-30T09:54:52;100082.69;;;11.22;66.96
64053;BME280;50299;49.524;8.536;2022-09-30T09:57:24;100088.72;;;10.91;71.41
64053;BME280;50299;49.524;8.536;2022-09-30T10:00:01;100085.56;;;11.25;68.13
64053;BME280;50299;49.524;8.536;2022-09-30T10:03:01;100090.59;;;11.44;68.82
64053;BME280;50299;49.524;8.536;2022-09-30T10:05:31;100090.75;;;11.84;67.73
64053;BME280;50299;49.524;8.536;2022-09-30T10:10:50;100078.84;;;12.61;70.25
64053;BME280;50299;49.524;8.536;2022-09-30T10:13:26;100085.84;;;12.71;57.69
64053;BME280;50299;49.524;8.536;2022-09-30T10:15:56;100077.34;;;12.11;55.36
64053;BME280;50299;49.524;8.536;2022-09-30T10:18:34;100074.44;;;12.07;61.00
64053;BME280;50299;49.524;8.536;2022-09-30T10:21:20;100068.13;;;11.70;54.15
64053;BME280;50299;49.524;8.536;2022-09-30T10:23:47;100072.72;;;12.03;67.25
64053;BME280;50299;49.524;8.536;2022-09-30T10:28:49;100063.03;;;12.90;56.70
64053;BME280;50299;49.524;8.536;2022-09-30T10:34:01;100071.78;;;13.36;55.10
64053;BME280;50299;49.524;8.536;2022-09-30T10:36:37;100070.31;;;12.42;54.64
64053;BME280;50299;49.524;8.536;2022-09-30T10:42:11;100065.78;;;13.33;49.92
64053;BME280;50299;49.524;8.536;2022-09-30T10:44:57;100061.59;;;13.71;56.72
64053;BME280;50299;49.524;8.536;2022-09-30T10:47:28;100057.03;;;14.14;57.87
64053;BME280;50299;49.524;8.536;2022-09-30T10:50:09;100058.09;;;14.64;59.10
64053;BME280;50299;49.524;8.536;2022-09-30T10:52:55;100058.78;;;14.77;61.81
64053;BME280;50299;49.524;8.536;2022-09-30T10:55:34;100047.75;;;15.03;48.87
64053;BME280;50299;49.524;8.536;2022-09-30T10:58:23;100052.19;;;14.85;45.01
64053;BME280;50299;49.524;8.536;2022-09-30T11:01:14;100051.00;;;14.86;51.13
64053;BME280;50299;49.524;8.536;2022-09-30T11:03:58;100050.31;;;15.12;45.11
64053;BME280;50299;49.524;8.536;2022-09-30T11:06:38;100040.00;;;15.36;61.14
64053;BME280;50299;49.524;8.536;2022-09-30T11:09:12;100038.81;;;15.60;48.88
64053;BME280;50299;49.524;8.536;2022-09-30T11:11:47;100049.81;;;15.75;45.11
64053;BME280;50299;49.524;8.536;2022-09-30T11:14:44;100042.31;;;15.79;49.28
64053;BME280;50299;49.524;8.536;2022-09-30T11:20:20;100054.34;;;16.10;42.59
64053;BME280;50299;49.524;8.536;2022-09-30T11:22:55;100061.69;;;15.95;41.32
64053;BME280;50299;49.524;8.536;2022-09-30T11:25:27;100065.13;;;14.97;40.54
64053;BME280;50299;49.524;8.536;2022-09-30T11:28:10;100057.59;;;14.39;41.79
64053;BME280;50299;49.524;8.536;2022-09-30T11:30:55;100056.81;;;14.77;46.79
64053;BME280;50299;49.524;8.536;2022-09-30T11:33:42;100046.56;;;15.04;44.93
64053;BME280;50299;49.524;8.536;2022-09-30T11:41:38;100043.81;;;15.73;41.51
64053;BME280;50299;49.524;8.536;2022-09-30T11:44:13;100049.06;;;16.32;48.99
64053;BME280;50299;49.524;8.536;2022-09-30T11:55:03;100053.53;;;16.40;39.60
64053;BME280;50299;49.524;8.536;2022-09-30T11:58:00;100051.31;;;15.92;39.53
64053;BME280;50299;49.524;8.536;2022-09-30T12:00:52;100047.47;;;16.31;43.81
64053;BME280;50299;49.524;8.536;2022-09-30T12:03:34;100055.22;;;16.78;37.44
64053;BME280;50299;49.524;8.536;2022-09-30T12:06:10;100043.06;;;17.34;39.89
64053;BME280;50299;49.524;8.536;2022-09-30T12:08:47;100049.66;;;17.56;38.76
64053;BME280;50299;49.524;8.536;2022-09-30T12:11:29;100053.03;;;17.35;46.73
64053;BME280;50299;49.524;8.536;2022-09-30T12:14:09;100044.34;;;17.44;39.22
64053;BME280;50299;49.524;8.536;2022-09-30T12:16:39;100051.38;;;16.26;37.99
64053;BME280;50299;49.524;8.536;2022-09-30T12:19:15;100052.59;;;15.07;45.75
64053;BME280;50299;49.524;8.536;2022-09-30T12:21:58;100049.38;;;15.47;45.95
64053;BME280;50299;49.524;8.536;2022-09-30T12:24:38;100050.88;;;16.17;42.12
64053;BME280;50299;49.524;8.536;2022-09-30T12:27:25;100057.13;;;16.40;42.43
64053;BME280;50299;49.524;8.536;2022-09-30T12:29:58;100062.25;;;16.35;43.78
64053;BME280;50299;49.524;8.536;2022-09-30T12:33:03;100054.34;;;15.87;40.56
64053;BME280;50299;49.524;8.536;2022-09-30T12:38:31;100063.72;;;15.49;37.85
64053;BME280;50299;49.524;8.536;2022-09-30T12:41:28;100061.06;;;15.56;38.35
64053;BME280;50299;49.524;8.536;2022-09-30T12:44:12;100063.44;;;16.07;44.51
64053;BME280;50299;49.524;8.536;2022-09-30T12:49:38;100057.31;;;16.85;42.91
64053;BME280;50299;49.524;8.536;2022-09-30T12:52:12;100060.28;;;17.40;40.59
64053;BME280;50299;49.524;8.536;2022-09-30T12:54:47;100055.44;;;17.78;40.38
64053;BME280;50299;49.524;8.536;2022-09-30T12:57:19;100053.03;;;17.80;33.11
64053;BME280;50299;49.524;8.536;2022-09-30T13:00:00;100054.41;;;16.44;37.27
64053;BME280;50299;49.524;8.536;2022-09-30T13:02:32;100060.94;;;16.25;35.10
64053;BME280;50299;49.524;8.536;2022-09-30T13:06:05;100057.97;;;17.08;37.89
64053;BME280;50299;49.524;8.536;2022-09-30T13:10:33;100052.66;;;16.96;40.56
64053;BME280;50299;49.524;8.536;2022-09-30T13:15:45;100060.34;;;17.95;39.87
64053;BME280;50299;49.524;8.536;2022-09-30T13:23:50;100064.22;;;18.42;34.54
64053;BME280;50299;49.524;8.536;2022-09-30T13:26:38;100063.69;;;18.11;31.33
64053;BME280;50299;49.524;8.536;2022-09-30T13:34:23;100069.50;;;15.17;36.05
64053;BME280;50299;49.524;8.536;2022-09-30T13:39:24;100067.53;;;15.64;39.15
64053;BME280;50299;49.524;8.536;2022-09-30T13:44:31;100062.97;;;15.52;40.63
64053;BME280;50299;49.524;8.536;2022-09-30T13:47:20;100072.19;;;16.06;37.40
64053;BME280;50299;49.524;8.536;2022-09-30T13:49:58;100066.13;;;16.90;37.18
64053;BME280;50299;49.524;8.536;2022-09-30T13:52:39;100058.94;;;17.26;36.03
64053;BME280;50299;49.524;8.536;2022-09-30T13:55:15;100066.47;;;17.22;32.86
64053;BME280;50299;49.524;8.536;2022-09-30T13:57:51;100064.16;;;17.32;35.71
64053;BME280;50299;49.524;8.536;2022-09-30T14:00:23;100069.63;;;17.17;38.12
64053;BME280;50299;49.524;8.536;2022-09-30T14:03:11;100075.81;;;17.82;34.22
64053;BME280;50299;49.524;8.536;2022-09-30T14:05:50;100064.59;;;18.37;33.47
64053;BME280;50299;49.524;8.536;2022-09-30T14:08:33;100057.28;;;18.11;31.34
64053;BME280;50299;49.524;8.536;2022-09-30T14:11:14;100061.16;;;17.99;37.08
64053;BME280;50299;49.524;8.536;2022-09-30T14:13:56;100061.06;;;17.85;38.81
64053;BME280;50299;49.524;8.536;2022-09-30T14:17:01;100053.22;;;17.49;36.62
64053;BME280;50299;49.524;8.536;2022-09-30T14:19:54;100049.38;;;16.87;37.63
64053;BME280;50299;49.524;8.536;2022-09-30T14:22:25;100055.66;;;16.20;37.91
64053;BME280;50299;49.524;8.536;2022-09-30T14:24:58;100049.13;;;15.82;36.37
64053;BME280;50299;49.524;8.536;2022-09-30T14:30:18;100051.44;;;15.76;41.09
64053;BME280;50299;49.524;8.536;2022-09-30T14:33:27;100049.91;;;16.36;40.45
64053;BME280;50299;49.524;8.536;2022-09-30T14:35:46;100043.47;;;16.01;42.92
64053;BME280;50299;49.524;8.536;2022-09-30T14:38:22;100048.75;;;15.84;45.05
64053;BME280;50299;49.524;8.536;2022-09-30T14:41:02;100045.81;;;16.26;38.69
64053;BME280;50299;49.524;8.536;2022-09-30T14:43:39;100044.94;;;17.23;36.03
64053;BME280;50299;49.524;8.536;2022-09-30T14:46:32;100051.50;;;17.86;34.41
64053;BME280;50299;49.524;8.536;2022-09-30T14:49:05;100053.69;;;18.14;32.83
64053;BME280;50299;49.524;8.536;2022-09-30T14:51:46;100057.72;;;19.14;34.47
64053;BME280;50299;49.524;8.536;2022-09-30T14:54:19;100052.94;;;19.93;37.17
64053;BME280;50299;49.524;8.536;2022-09-30T14:56:48;100049.34;;;19.96;30.05
64053;BME280;50299;49.524;8.536;2022-09-30T14:59:21;100058.09;;;20.38;30.81
64053;BME280;50299;49.524;8.536;2022-09-30T15:01:59;100052.16;;;19.54;30.63
64053;BME280;50299;49.524;8.536;2022-09-30T15:04:29;100051.63;;;18.07;34.90
64053;BME280;50299;49.524;8.536;2022-09-30T15:06:58;100058.28;;;17.88;38.50
64053;BME280;50299;49.524;8.536;2022-09-30T15:09:34;100057.94;;;17.97;39.99
64053;BME280;50299;49.524;8.536;2022-09-30T15:12:03;100048.47;;;17.57;36.03
64053;BME280;50299;49.524;8.536;2022-09-30T15:14:30;100047.03;;;16.92;36.48
64053;BME280;50299;49.524;8.536;2022-09-30T15:16:58;100047.34;;;16.84;38.57
64053;BME280;50299;49.524;8.536;2022-09-30T15:19:32;100052.94;;;16.23;38.88
64053;BME280;50299;49.524;8.536;2022-09-30T15:22:03;100046.94;;;15.45;47.36
64053;BME280;50299;49.524;8.536;2022-09-30T15:24:38;100039.09;;;15.09;42.94
64053;BME280;50299;49.524;8.536;2022-09-30T15:27:20;100035.69;;;14.96;39.59
64053;BME280;50299;49.524;8.536;2022-09-30T15:29:55;100040.59;;;15.71;45.35
64053;BME280;50299;49.524;8.536;2022-09-30T15:32:33;100043.19;;;17.45;36.43
64053;BME280;50299;49.524;8.536;2022-09-30T15:35:17;100042.41;;;18.76;40.89
64053;BME280;50299;49.524;8.536;2022-09-30T15:37:46;100042.94;;;19.92;37.43